createdAt,value
2023-03-06T00:00:29.769Z,7.18
2023-03-06T00:02:57.257Z,4.30
2023-03-06T00:05:24.030Z,9.52
2023-03-06T00:07:50.664Z,7.88
2023-03-06T00:10:20.810Z,4.57
2023-03-06T00:12:47.594Z,8.57
2023-03-06T00:15:14.694Z,5.32
2023-03-06T00:17:41.525Z,7.95
2023-03-06T00:20:10.804Z,10.43
2023-03-06T00:22:37.645Z,4.43
2023-03-06T00:25:05.493Z,8.13
2023-03-06T00:27:32.696Z,6.00
2023-03-06T00:30:00.902Z,5.95
2023-03-06T00:32:28.326Z,3.85
2023-03-06T00:34:55.703Z,4.78
2023-03-06T00:37:24.363Z,6.05
2023-03-06T00:39:51.416Z,5.95
2023-03-06T00:42:19.263Z,11.70
2023-03-06T00:44:46.760Z,6.40
2023-03-06T00:47:17.093Z,4.38
2023-03-06T00:49:46.909Z,6.40
2023-03-06T00:52:13.713Z,12.60
2023-03-06T00:54:40.717Z,8.25
2023-03-06T00:57:07.883Z,5.88
2023-03-06T00:59:34.856Z,9.90
2023-03-06T01:02:01.488Z,8.13
2023-03-06T01:04:28.007Z,5.82
2023-03-06T01:06:54.476Z,6.20
2023-03-06T01:09:21.155Z,5.55
2023-03-06T01:11:47.589Z,5.07
2023-03-06T01:14:16.689Z,8.50
2023-03-06T01:16:43.108Z,4.95
2023-03-06T01:19:09.592Z,6.13
2023-03-06T01:21:35.952Z,4.53
2023-03-06T01:24:02.436Z,4.80
2023-03-06T01:26:28.897Z,6.18
2023-03-06T01:28:57.427Z,9.07
2023-03-06T01:31:25.082Z,5.50
2023-03-06T01:33:51.912Z,4.65
2023-03-06T01:36:18.708Z,9.55
2023-03-06T01:38:45.115Z,6.13
2023-03-06T01:41:15.541Z,8.15
2023-03-06T01:43:46.075Z,6.75
2023-03-06T01:46:44.915Z,5.68
2023-03-06T01:49:14.785Z,8.63
2023-03-06T01:51:48.596Z,7.13
2023-03-06T01:54:22.626Z,5.18
2023-03-06T01:56:52.885Z,6.32
2023-03-06T01:59:21.681Z,4.82
2023-03-06T02:01:48.339Z,10.43
2023-03-06T02:04:16.027Z,8.88
2023-03-06T02:06:45.867Z,4.65
2023-03-06T02:09:13.387Z,5.68
2023-03-06T02:11:43.919Z,10.35
2023-03-06T02:14:16.154Z,4.25
2023-03-06T02:16:43.439Z,8.23
2023-03-06T02:19:49.165Z,7.00
2023-03-06T02:22:15.541Z,6.97
2023-03-06T02:25:07.892Z,6.55
2023-03-06T02:27:34.729Z,4.45
2023-03-06T02:30:06.383Z,4.25
2023-03-06T02:32:32.800Z,5.15
2023-03-06T02:34:59.266Z,9.20
2023-03-06T02:37:28.369Z,5.35
2023-03-06T02:40:02.817Z,8.30
2023-03-06T02:42:29.600Z,6.90
2023-03-06T02:44:58.940Z,4.18
2023-03-06T02:47:25.413Z,4.45
2023-03-06T02:49:51.880Z,7.07
2023-03-06T02:52:18.252Z,2.55
2023-03-06T02:54:44.808Z,3.92
2023-03-06T02:57:11.249Z,5.28
2023-03-06T02:59:37.665Z,4.40
2023-03-06T03:02:04.129Z,4.10
2023-03-06T03:04:30.482Z,8.82
2023-03-06T03:06:56.904Z,4.15
2023-03-06T03:09:23.262Z,7.70
2023-03-06T03:11:49.649Z,6.00
2023-03-06T03:14:16.655Z,7.65
2023-03-06T03:16:43.037Z,7.60
2023-03-06T03:19:09.430Z,4.80
2023-03-06T03:21:35.869Z,6.70
2023-03-06T03:24:02.385Z,8.18
2023-03-06T03:26:28.882Z,4.10
2023-03-06T03:28:55.275Z,6.38
2023-03-06T03:31:21.773Z,5.43
2023-03-06T03:33:48.203Z,10.00
2023-03-06T03:36:14.567Z,6.13
2023-03-06T03:38:40.929Z,9.88
2023-03-06T03:41:07.341Z,5.38
2023-03-06T03:43:33.788Z,9.68
2023-03-06T03:46:00.220Z,7.40
2023-03-06T03:48:26.674Z,8.85
2023-03-06T03:50:53.026Z,5.57
2023-03-06T03:53:19.576Z,7.03
2023-03-06T03:55:49.088Z,5.78
2023-03-06T03:58:15.650Z,7.32
2023-03-06T04:00:41.987Z,8.20
2023-03-06T04:03:08.411Z,6.47
2023-03-06T04:05:34.916Z,7.68
2023-03-06T04:08:03.038Z,6.05
2023-03-06T04:10:29.546Z,6.97
2023-03-06T04:12:56.030Z,7.65
2023-03-06T04:15:22.499Z,7.95
2023-03-06T04:17:48.952Z,8.35
2023-03-06T04:20:15.639Z,7.15
2023-03-06T04:22:42.051Z,9.88
2023-03-06T04:25:08.943Z,8.07
2023-03-06T04:27:35.282Z,10.10
2023-03-06T04:30:03.945Z,11.05
2023-03-06T04:32:30.426Z,8.30
2023-03-06T04:34:56.832Z,6.30
2023-03-06T04:37:25.288Z,10.38
2023-03-06T04:39:52.046Z,9.25
2023-03-06T04:42:18.682Z,7.80
2023-03-06T04:44:45.433Z,7.90
2023-03-06T04:47:12.332Z,6.55
2023-03-06T04:49:38.670Z,8.55
2023-03-06T04:52:05.291Z,7.97
2023-03-06T04:54:32.220Z,7.88
2023-03-06T04:56:58.732Z,7.97
2023-03-06T04:59:25.177Z,8.63
2023-03-06T05:01:52.115Z,7.32
2023-03-06T05:04:19.563Z,12.02
2023-03-06T05:06:45.923Z,8.57
2023-03-06T05:09:12.328Z,9.25
2023-03-06T05:11:38.658Z,8.80
2023-03-06T05:14:05.064Z,11.18
2023-03-06T05:16:31.592Z,9.00
2023-03-06T05:18:57.952Z,8.10
2023-03-06T05:21:24.324Z,9.45
2023-03-06T05:23:50.726Z,9.90
2023-03-06T05:26:17.110Z,10.70
2023-03-06T05:28:43.516Z,7.00
2023-03-06T05:31:09.880Z,8.48
2023-03-06T05:33:36.680Z,9.13
2023-03-06T05:36:03.376Z,7.90
2023-03-06T05:38:29.764Z,6.90
2023-03-06T05:40:56.093Z,8.35
2023-03-06T05:43:22.490Z,10.43
2023-03-06T05:45:50.411Z,6.90
2023-03-06T05:48:16.998Z,8.55
2023-03-06T05:50:43.382Z,9.55
2023-03-06T05:53:10.694Z,9.20
2023-03-06T05:55:37.090Z,9.50
2023-03-06T05:58:03.519Z,7.88
2023-03-06T06:00:29.951Z,8.00
2023-03-06T06:02:56.338Z,9.15
2023-03-06T06:05:22.734Z,6.28
2023-03-06T06:07:49.086Z,9.93
2023-03-06T06:10:15.773Z,7.32
2023-03-06T06:12:42.149Z,13.07
2023-03-06T06:15:08.836Z,6.78
2023-03-06T06:17:35.185Z,9.85
2023-03-06T06:20:01.644Z,10.27
2023-03-06T06:22:29.522Z,6.88
2023-03-06T06:24:55.993Z,11.10
2023-03-06T06:27:22.368Z,9.32
2023-03-06T06:29:51.598Z,9.18
2023-03-06T06:32:18.126Z,10.63
2023-03-06T06:34:44.483Z,8.65
2023-03-06T06:37:10.920Z,8.13
2023-03-06T06:39:37.254Z,10.73
2023-03-06T06:42:28.223Z,9.60
2023-03-06T06:44:50.220Z,11.73
2023-03-06T06:49:54.715Z,10.68
2023-03-06T06:52:21.916Z,13.38
2023-03-06T06:54:48.422Z,7.88
2023-03-06T06:57:15.578Z,9.35
2023-03-06T06:59:42.493Z,11.65
2023-03-06T07:02:12.314Z,9.82
2023-03-06T07:04:44.283Z,9.93
2023-03-06T07:07:15.932Z,11.07
2023-03-06T07:09:42.449Z,16.45
2023-03-06T07:12:09.214Z,14.77
2023-03-06T07:14:36.171Z,11.80
2023-03-06T07:17:02.746Z,12.75
2023-03-06T07:19:29.295Z,11.15
2023-03-06T07:21:55.967Z,11.90
2023-03-06T07:24:22.648Z,12.57
2023-03-06T07:26:49.440Z,11.98
2023-03-06T07:29:15.995Z,14.00
2023-03-06T07:31:42.690Z,11.45
2023-03-06T07:34:13.028Z,14.52
2023-03-06T07:36:40.441Z,17.00
2023-03-06T07:39:10.309Z,13.05
2023-03-06T07:41:37.118Z,12.73
2023-03-06T07:44:03.768Z,11.52
2023-03-06T07:46:30.359Z,12.13
2023-03-06T07:48:58.145Z,13.40
2023-03-06T07:51:24.875Z,13.95
2023-03-06T07:53:51.406Z,11.38
2023-03-06T07:56:17.942Z,11.63
2023-03-06T07:58:46.073Z,13.13
2023-03-06T08:01:20.935Z,11.90
2023-03-06T08:03:50.027Z,15.52
2023-03-06T08:06:27.312Z,17.98
2023-03-06T08:08:55.578Z,13.95
2023-03-06T08:11:24.637Z,23.98
2023-03-06T08:13:53.064Z,10.45
2023-03-06T08:16:25.207Z,14.50
2023-03-06T08:18:52.126Z,11.43
2023-03-06T08:21:23.955Z,9.82
2023-03-06T08:23:51.559Z,10.13
2023-03-06T08:26:24.432Z,10.82
2023-03-06T08:28:52.773Z,11.05
2023-03-06T08:31:36.046Z,12.07
2023-03-06T08:34:09.170Z,9.05
2023-03-06T08:36:36.073Z,9.30
2023-03-06T08:39:03.320Z,9.02
2023-03-06T08:41:30.234Z,8.77
2023-03-06T08:43:57.038Z,9.50
2023-03-06T08:46:26.858Z,10.48
2023-03-06T08:48:53.818Z,8.98
2023-03-06T08:51:22.908Z,9.27
2023-03-06T08:53:50.474Z,6.97
2023-03-06T08:56:19.281Z,7.97
2023-03-06T08:58:46.334Z,7.45
2023-03-06T09:01:28.374Z,8.73
2023-03-06T09:03:57.264Z,6.38
2023-03-06T09:06:24.074Z,7.32
2023-03-06T09:08:52.516Z,6.82
2023-03-06T09:11:21.358Z,6.82
2023-03-06T09:13:48.173Z,6.57
2023-03-06T09:16:14.804Z,5.40
2023-03-06T09:18:41.576Z,4.43
2023-03-06T09:21:09.494Z,4.65
2023-03-06T09:23:37.191Z,6.75
2023-03-06T09:26:03.950Z,4.03
2023-03-06T09:28:30.491Z,5.30
2023-03-06T09:30:57.392Z,6.47
2023-03-06T09:33:24.559Z,3.95
2023-03-06T09:35:54.734Z,5.43
2023-03-06T09:38:24.068Z,4.03
2023-03-06T09:41:05.754Z,4.28
2023-03-06T09:43:37.225Z,4.63
2023-03-06T09:46:23.421Z,5.00
2023-03-06T09:49:18.310Z,3.05
2023-03-06T09:52:10.418Z,3.08
2023-03-06T09:54:44.393Z,2.60
2023-03-06T09:57:22.470Z,2.83
2023-03-06T09:59:54.087Z,3.63
2023-03-06T10:02:47.034Z,2.58
2023-03-06T10:05:23.289Z,3.00
2023-03-06T10:08:25.473Z,3.25
2023-03-06T10:11:02.208Z,2.22
2023-03-06T10:13:48.499Z,2.20
2023-03-06T10:16:25.459Z,2.63
2023-03-06T10:18:53.170Z,3.25
2023-03-06T10:21:44.288Z,2.33
2023-03-06T10:24:28.128Z,4.68
2023-03-06T10:27:13.162Z,3.22
2023-03-06T10:30:01.625Z,2.83
2023-03-06T10:32:46.052Z,3.60
2023-03-06T10:35:22.167Z,3.53
2023-03-06T10:37:49.298Z,3.20
2023-03-06T10:40:21.673Z,2.28
2023-03-06T10:42:49.507Z,4.32
2023-03-06T10:45:18.694Z,4.57
2023-03-06T10:47:46.093Z,2.35
2023-03-06T10:50:28.810Z,2.22
2023-03-06T10:53:05.581Z,2.00
2023-03-06T10:55:34.717Z,2.70
2023-03-06T10:58:25.783Z,3.28
2023-03-06T11:01:20.262Z,3.22
2023-03-06T11:03:47.814Z,3.53
2023-03-06T11:06:30.357Z,3.55
2023-03-06T11:09:15.492Z,2.58
2023-03-06T11:11:41.979Z,3.35
2023-03-06T11:14:20.877Z,4.20
2023-03-06T11:16:53.129Z,2.13
2023-03-06T11:19:27.231Z,3.38
2023-03-06T11:22:01.185Z,1.85
2023-03-06T11:24:37.053Z,2.47
2023-03-06T11:27:22.322Z,1.80
2023-03-06T11:29:51.048Z,2.88
2023-03-06T11:32:23.457Z,2.40
2023-03-06T11:35:28.365Z,2.72
2023-03-06T11:38:06.788Z,2.03
2023-03-06T11:40:56.022Z,2.05
2023-03-06T11:43:35.336Z,1.50
2023-03-06T11:46:15.293Z,1.00
2023-03-06T11:48:53.223Z,2.35
2023-03-06T11:51:26.865Z,1.52
2023-03-06T11:53:55.034Z,0.82
2023-03-06T11:56:31.790Z,1.80
2023-03-06T11:59:38.449Z,1.35
2023-03-06T12:02:20.085Z,0.65
2023-03-06T12:05:05.605Z,1.13
2023-03-06T12:07:56.106Z,1.30
2023-03-06T12:10:34.892Z,2.70
2023-03-06T12:13:27.209Z,2.95
2023-03-06T12:16:06.164Z,3.00
2023-03-06T12:19:03.616Z,1.63
2023-03-06T12:21:41.928Z,1.63
2023-03-06T12:24:30.271Z,3.05
2023-03-06T12:27:05.199Z,1.50
2023-03-06T12:29:37.742Z,1.15
2023-03-06T12:32:40.275Z,2.00
2023-03-06T12:35:36.228Z,1.30
2023-03-06T12:38:11.598Z,1.20
2023-03-06T12:40:50.336Z,1.40
2023-03-06T12:43:44.730Z,1.58
2023-03-06T12:46:17.483Z,1.23
2023-03-06T12:48:48.777Z,1.55
2023-03-06T12:51:20.393Z,2.35
2023-03-06T12:53:48.192Z,1.33
2023-03-06T12:56:17.007Z,0.85
2023-03-06T12:59:02.268Z,1.15
2023-03-06T13:02:06.598Z,1.35
2023-03-06T13:04:45.515Z,3.58
2023-03-06T13:07:45.230Z,1.08
2023-03-06T13:10:30.442Z,1.65
2023-03-06T13:13:01.052Z,1.42
2023-03-06T13:15:27.448Z,1.75
2023-03-06T13:17:53.898Z,1.73
2023-03-06T13:20:26.866Z,1.33
2023-03-06T13:22:53.307Z,1.50
2023-03-06T13:25:19.896Z,2.65
2023-03-06T13:28:00.859Z,2.20
2023-03-06T13:30:36.587Z,5.47
2023-03-06T13:33:32.895Z,2.38
2023-03-06T13:36:00.438Z,2.17
2023-03-06T13:38:35.923Z,1.83
2023-03-06T13:41:20.806Z,1.02
2023-03-06T13:43:48.539Z,1.75
2023-03-06T13:46:26.042Z,0.70
2023-03-06T13:49:07.683Z,2.47
2023-03-06T13:51:42.985Z,2.33
2023-03-06T13:54:16.904Z,2.65
2023-03-06T13:57:00.940Z,0.90
2023-03-06T14:00:08.130Z,2.35
2023-03-06T14:03:06.626Z,4.35
2023-03-06T14:05:42.288Z,3.20
2023-03-06T14:08:27.543Z,1.23
2023-03-06T14:11:03.864Z,1.73
2023-03-06T14:13:45.523Z,2.20
2023-03-06T14:16:21.557Z,1.30
2023-03-06T14:18:51.230Z,2.17
2023-03-06T14:21:32.199Z,1.58
2023-03-06T14:24:01.286Z,1.88
2023-03-06T14:26:32.896Z,1.33
2023-03-06T14:29:00.952Z,1.95
2023-03-06T14:31:41.103Z,1.50
2023-03-06T14:34:15.329Z,1.95
2023-03-06T14:36:41.675Z,2.03
2023-03-06T14:39:13.638Z,2.75
2023-03-06T14:41:40.812Z,2.42
2023-03-06T14:44:27.448Z,3.22
2023-03-06T14:47:40.903Z,2.53
2023-03-06T14:50:32.432Z,2.53
2023-03-06T14:53:19.055Z,2.58
2023-03-06T14:56:06.357Z,2.83
2023-03-06T14:58:44.045Z,3.33
2023-03-06T15:01:13.444Z,1.75
2023-03-06T15:03:48.194Z,1.70
2023-03-06T15:06:22.443Z,1.90
2023-03-06T15:09:02.145Z,1.83
2023-03-06T15:11:56.036Z,4.30
2023-03-06T15:14:31.432Z,1.85
2023-03-06T15:17:17.234Z,1.73
2023-03-06T15:19:46.005Z,2.17
2023-03-06T15:22:27.039Z,1.50
2023-03-06T15:25:06.044Z,1.27
2023-03-06T15:27:32.499Z,1.50
2023-03-06T15:30:23.102Z,1.45
2023-03-06T15:32:49.455Z,2.38
2023-03-06T15:35:36.608Z,0.82
2023-03-06T15:38:22.296Z,0.73
2023-03-06T15:40:59.180Z,0.93
2023-03-06T15:43:26.578Z,2.17
2023-03-06T15:45:58.809Z,2.45
2023-03-06T15:48:25.912Z,0.77
2023-03-06T15:50:52.305Z,1.58
2023-03-06T15:53:20.178Z,4.60
2023-03-06T15:55:46.869Z,2.22
2023-03-06T15:58:17.096Z,1.88
2023-03-06T16:00:44.291Z,0.77
2023-03-06T16:03:11.860Z,1.63
2023-03-06T16:05:38.565Z,1.02
2023-03-06T16:08:05.877Z,0.70
2023-03-06T16:10:43.911Z,0.70
2023-03-06T16:13:16.027Z,1.85
2023-03-06T16:15:48.674Z,1.17
2023-03-06T16:18:15.191Z,1.25
2023-03-06T16:20:41.627Z,1.20
2023-03-06T16:23:10.484Z,2.25
2023-03-06T16:25:38.838Z,3.70
2023-03-06T16:28:07.373Z,0.80
2023-03-06T16:30:35.353Z,3.05
2023-03-06T16:33:02.201Z,2.05
2023-03-06T16:35:28.743Z,1.25
2023-03-06T16:37:55.181Z,1.00
2023-03-06T16:40:27.685Z,0.70
2023-03-06T16:42:56.356Z,2.10
2023-03-06T16:45:23.785Z,2.88
2023-03-06T16:47:50.396Z,1.10
2023-03-06T16:50:29.413Z,1.92
2023-03-06T16:52:57.226Z,1.73
2023-03-06T16:55:25.077Z,2.45
2023-03-06T16:57:51.921Z,1.63
2023-03-06T17:00:19.547Z,2.67
2023-03-06T17:02:48.971Z,1.67
2023-03-06T17:05:15.703Z,2.20
2023-03-06T17:07:42.114Z,2.13
2023-03-06T17:10:16.196Z,2.10
2023-03-06T17:12:43.260Z,1.27
2023-03-06T17:15:10.892Z,1.65
2023-03-06T17:17:37.933Z,1.58
2023-03-06T17:20:07.470Z,2.00
2023-03-06T17:22:35.520Z,1.58
2023-03-06T17:25:04.719Z,3.78
2023-03-06T17:27:31.117Z,4.13
2023-03-06T17:29:58.064Z,7.82
2023-03-06T17:32:25.283Z,4.32
2023-03-06T17:34:51.712Z,4.82
2023-03-06T17:37:18.333Z,4.00
2023-03-06T17:39:44.771Z,5.70
2023-03-06T17:42:11.147Z,2.33
2023-03-06T17:44:38.452Z,1.95
2023-03-06T17:47:05.663Z,2.15
2023-03-06T17:49:32.556Z,1.75
2023-03-06T17:52:03.560Z,2.13
2023-03-06T17:54:30.104Z,2.70
2023-03-06T17:57:00.943Z,3.20
2023-03-06T17:59:28.264Z,2.58
2023-03-06T18:01:58.750Z,2.03
2023-03-06T18:04:25.526Z,4.35
2023-03-06T18:06:51.918Z,2.80
2023-03-06T18:09:18.554Z,1.98
2023-03-06T18:11:45.278Z,3.88
2023-03-06T18:14:11.858Z,1.92
2023-03-06T18:16:38.362Z,2.85
2023-03-06T18:19:04.817Z,2.45
2023-03-06T18:21:31.326Z,4.97
2023-03-06T18:23:57.817Z,3.05
2023-03-06T18:26:26.817Z,1.67
2023-03-06T18:28:55.692Z,4.10
2023-03-06T18:31:27.599Z,2.53
2023-03-06T18:33:56.508Z,2.67
2023-03-06T18:36:25.242Z,2.45
2023-03-06T18:38:52.017Z,2.72
2023-03-06T18:41:20.158Z,3.05
2023-03-06T18:43:54.880Z,2.50
2023-03-06T18:46:22.262Z,2.30
2023-03-06T18:51:30.261Z,3.22
2023-03-06T18:54:00.873Z,3.85
2023-03-06T18:56:27.478Z,5.10
2023-03-06T18:58:54.285Z,6.40
2023-03-06T19:01:22.421Z,6.72
2023-03-06T19:03:49.001Z,6.60
2023-03-06T19:06:17.081Z,8.07
2023-03-06T19:08:43.578Z,8.32
2023-03-06T19:11:15.441Z,8.60
2023-03-06T19:13:42.463Z,9.77
2023-03-06T19:16:09.508Z,7.68
2023-03-06T19:18:36.073Z,8.43
2023-03-06T19:21:14.897Z,10.30
2023-03-06T19:23:42.150Z,10.82
2023-03-06T19:26:08.996Z,10.63
2023-03-06T19:28:37.459Z,11.95
2023-03-06T19:31:25.047Z,10.57
2023-03-06T19:33:53.113Z,16.08
2023-03-06T19:36:23.529Z,12.13
2023-03-06T19:38:56.673Z,12.63
2023-03-06T19:41:23.311Z,13.10
2023-03-06T19:43:52.891Z,14.57
2023-03-06T19:46:20.213Z,14.50
2023-03-06T19:48:47.063Z,14.27
2023-03-06T19:51:14.252Z,15.38
2023-03-06T19:53:41.871Z,16.17
2023-03-06T19:56:15.712Z,16.77
2023-03-06T19:58:42.551Z,15.95
2023-03-06T20:01:15.099Z,16.35
2023-03-06T20:03:42.192Z,20.20
2023-03-06T20:06:14.209Z,21.40
2023-03-06T20:08:41.754Z,21.37
2023-03-06T20:11:22.353Z,20.40
2023-03-06T20:13:49.148Z,28.48
2023-03-06T20:16:16.922Z,23.88
2023-03-06T20:18:43.485Z,23.02
2023-03-06T20:21:10.161Z,24.13
2023-03-06T20:23:36.603Z,25.25
2023-03-06T20:26:05.949Z,26.00
2023-03-06T20:28:32.894Z,28.40
2023-03-06T20:30:59.461Z,28.20
2023-03-06T20:33:26.969Z,29.80
2023-03-06T20:35:54.137Z,28.10
2023-03-06T20:38:20.749Z,29.73
2023-03-06T20:40:47.455Z,28.98
2023-03-06T20:43:13.868Z,29.42
2023-03-06T20:45:40.320Z,32.58
2023-03-06T20:48:06.891Z,35.45
2023-03-06T20:50:33.327Z,36.83
2023-03-06T20:52:59.818Z,36.85
2023-03-06T20:55:26.337Z,37.80
2023-03-06T20:57:52.950Z,36.53
2023-03-06T21:00:20.986Z,37.85
2023-03-06T21:02:47.676Z,36.83
2023-03-06T21:05:14.310Z,42.05
2023-03-06T21:07:40.883Z,42.70
2023-03-06T21:10:08.412Z,42.42
2023-03-06T21:12:34.912Z,43.13
2023-03-06T21:15:01.474Z,42.88
2023-03-06T21:17:28.146Z,44.72
2023-03-06T21:19:54.657Z,48.05
2023-03-06T21:22:21.097Z,43.33
2023-03-06T21:24:47.607Z,41.72
2023-03-06T21:27:14.085Z,43.20
2023-03-06T21:29:40.518Z,45.15
2023-03-06T21:32:07.056Z,43.60
2023-03-06T21:34:33.487Z,48.45
2023-03-06T21:36:59.958Z,46.15
2023-03-06T21:39:26.520Z,51.40
2023-03-06T21:41:53.034Z,50.60
2023-03-06T21:44:19.664Z,45.05
2023-03-06T21:46:46.141Z,50.10
2023-03-06T21:49:12.635Z,47.28
2023-03-06T21:51:39.245Z,46.63
2023-03-06T21:54:06.889Z,49.08
2023-03-06T21:56:33.899Z,47.42
2023-03-06T21:59:00.737Z,48.95
2023-03-06T22:01:28.839Z,43.25
2023-03-06T22:03:55.911Z,50.20
2023-03-06T22:06:25.305Z,47.00
2023-03-06T22:08:52.297Z,51.78
2023-03-06T22:11:20.433Z,46.58
2023-03-06T22:13:50.380Z,52.70
2023-03-06T22:16:17.737Z,52.65
2023-03-06T22:18:46.202Z,52.80
2023-03-06T22:21:14.948Z,51.58
2023-03-06T22:23:41.640Z,54.38
2023-03-06T22:26:11.216Z,51.13
2023-03-06T22:28:38.832Z,51.42
2023-03-06T22:31:12.807Z,51.88
2023-03-06T22:33:39.714Z,52.58
2023-03-06T22:36:08.970Z,57.95
2023-03-06T22:38:37.511Z,53.42
2023-03-06T22:41:05.918Z,53.30
2023-03-06T22:43:33.046Z,54.75
2023-03-06T22:46:04.315Z,57.33
2023-03-06T22:48:31.315Z,55.45
2023-03-06T22:51:25.771Z,52.47
2023-03-06T22:53:52.552Z,60.58
2023-03-06T22:56:21.191Z,52.67
2023-03-06T22:58:48.151Z,53.35
2023-03-06T23:01:17.553Z,51.75
2023-03-06T23:03:46.727Z,52.08
2023-03-06T23:06:19.200Z,56.28
2023-03-06T23:08:50.431Z,52.97
2023-03-06T23:11:19.559Z,54.38
2023-03-06T23:13:46.517Z,61.72
2023-03-06T23:16:13.239Z,58.70
2023-03-06T23:18:40.895Z,55.28
2023-03-06T23:21:13.896Z,51.97
2023-03-06T23:26:08.223Z,55.78
2023-03-06T23:28:35.003Z,52.55
2023-03-06T23:31:10.401Z,52.75
2023-03-06T23:33:38.714Z,53.72
2023-03-06T23:36:07.368Z,58.33
2023-03-06T23:38:34.145Z,55.17
2023-03-06T23:41:21.087Z,53.42
2023-03-06T23:43:48.527Z,52.45
2023-03-06T23:46:15.760Z,52.25
2023-03-06T23:48:43.279Z,48.50
2023-03-06T23:51:14.814Z,49.72
2023-03-06T23:53:41.655Z,45.45
2023-03-06T23:56:08.653Z,45.45
2023-03-06T23:58:35.815Z,43.95
